GRVA4: Fourche LaFave River Nr Gravelly, Ark

                                SHEF ID:       GRVA4     Fourche LaFave River Near Gravel
STATION TYPE: Stream Gauge

PRECIP STAGE RIV-FLOW BAT-LOAD
in ft cfs volt
Ccp-Rev Ccp-Rev Ccp-Rev Ccp-Rev
(America/Chicago)
11/25 00:00 0.00 5.68 1885 12.44
11/25 01:00 0.01 6.07 2191 12.44
11/25 02:00 0.00 6.31 2391 12.44
11/25 03:00 0.00 6.44 2502 12.44
11/25 04:00 0.00 6.47 2529 12.43
11/25 05:00 0.00 6.44 2502 12.44
11/25 06:00 0.00 6.34 2416 12.43
11/25 07:00 0.00 6.22 2315 12.43
11/25 08:00 0.01 6.10 2215 12.44
11/25 09:00 0.00 5.94 2086 12.67
11/25 10:00 0.00 5.81 1984 12.86
11/25 11:00 0.00 5.67 1877 13.31
11/25 12:00 0.00 5.54 1781 13.09
11/25 13:00 0.00 5.42 1694 13.20
11/25 14:00 0.00 5.30 1609 13.07
11/25 15:00 0.00 5.19 1534 12.83
11/25 16:00 0.00 5.10 1473 12.77
11/25 17:00 0.00 5.00 1407 12.71
11/25 18:00 0.00 4.90 1343 12.67
11/25 19:00 0.00 4.82 1293 12.66
11/25 20:00 0.00 4.74 1244 12.63
11/25 21:00 0.00 4.66 1195 12.61
11/25 22:00 0.00 4.58 1148 12.59
11/25 23:00 0.00 4.51 1107 12.57
Data processed at Wed 26Nov2025 05:55 GMT

NOTICE: If you are parsing this page

Please convert to using our Data API. Starting January 1st, 2026 we will be migrating to: https://water.usace.army.mil with modern pages rendered in JavaScript. You will no longer be able to scrape this page! CWMSDataAPI (CDA)

Timeseries IDs (TSIDs)

TSIDs used from left to right in the data table
GRAV.Precip-Inc.Total.1Hour.1Hour.Ccp-Rev
GRAV.Stage.Inst.1Hour.0.Ccp-Rev
GRAV.Flow.Inst.1Hour.0.Ccp-Rev
GRAV.Volt-Battery Load.Inst.1Hour.0.Ccp-Rev

                            

All information presented herein is the property of the government of the United States of America and may be revised or deleted at any time without prior notice. Dissemination of this information without the expressed written consent of the Public Affairs Office, Tulsa District U.S. Army Corps of Engineers is strictly prohibited. These data are gathered electronically and, as presented, have NOT undergone any form of quality control. These data are NOT guaranteed to be valid or correct.